sensor_id;sensor_type;location;lat;lon;timestamp;P1;durP1;ratioP1;P2;durP2;ratioP2
31618;SDS011;18230;51.502;7.108;2022-08-14T00:04:58;13.95;;;5.38;;
31618;SDS011;18230;51.502;7.108;2022-08-14T00:10:00;9.30;;;4.97;;
31618;SDS011;18230;51.502;7.108;2022-08-14T00:15:02;6.38;;;4.40;;
31618;SDS011;18230;51.502;7.108;2022-08-14T00:20:07;6.43;;;5.35;;
31618;SDS011;18230;51.502;7.108;2022-08-14T00:25:08;5.50;;;4.82;;
31618;SDS011;18230;51.502;7.108;2022-08-14T00:30:10;10.73;;;5.20;;
31618;SDS011;18230;51.502;7.108;2022-08-14T00:35:12;6.20;;;4.72;;
31618;SDS011;18230;51.502;7.108;2022-08-14T00:40:15;7.85;;;5.22;;
31618;SDS011;18230;51.502;7.108;2022-08-14T00:45:17;10.07;;;4.80;;
31618;SDS011;18230;51.502;7.108;2022-08-14T00:50:19;5.88;;;4.72;;
31618;SDS011;18230;51.502;7.108;2022-08-14T00:55:21;10.55;;;5.60;;
31618;SDS011;18230;51.502;7.108;2022-08-14T01:00:22;14.43;;;5.35;;
31618;SDS011;18230;51.502;7.108;2022-08-14T01:05:23;9.70;;;4.63;;
31618;SDS011;18230;51.502;7.108;2022-08-14T01:10:25;8.20;;;5.07;;
31618;SDS011;18230;51.502;7.108;2022-08-14T01:15:45;6.88;;;4.97;;
31618;SDS011;18230;51.502;7.108;2022-08-14T01:20:48;8.43;;;5.20;;
31618;SDS011;18230;51.502;7.108;2022-08-14T01:26:10;5.70;;;5.20;;
31618;SDS011;18230;51.502;7.108;2022-08-14T01:31:15;7.80;;;5.53;;
31618;SDS011;18230;51.502;7.108;2022-08-14T01:36:18;12.80;;;5.85;;
31618;SDS011;18230;51.502;7.108;2022-08-14T01:41:20;10.18;;;5.63;;
31618;SDS011;18230;51.502;7.108;2022-08-14T01:46:22;6.93;;;5.78;;
31618;SDS011;18230;51.502;7.108;2022-08-14T01:51:24;8.90;;;5.97;;
31618;SDS011;18230;51.502;7.108;2022-08-14T01:56:28;8.70;;;5.90;;
31618;SDS011;18230;51.502;7.108;2022-08-14T02:01:40;6.60;;;5.88;;
31618;SDS011;18230;51.502;7.108;2022-08-14T02:06:42;11.63;;;6.20;;
31618;SDS011;18230;51.502;7.108;2022-08-14T02:11:43;10.25;;;5.75;;
31618;SDS011;18230;51.502;7.108;2022-08-14T02:16:46;10.70;;;6.25;;
31618;SDS011;18230;51.502;7.108;2022-08-14T02:21:53;7.05;;;5.70;;
31618;SDS011;18230;51.502;7.108;2022-08-14T02:26:58;10.65;;;6.75;;
31618;SDS011;18230;51.502;7.108;2022-08-14T02:31:59;9.23;;;6.70;;
31618;SDS011;18230;51.502;7.108;2022-08-14T02:37:10;9.40;;;5.93;;
31618;SDS011;18230;51.502;7.108;2022-08-14T02:42:14;14.73;;;6.88;;
31618;SDS011;18230;51.502;7.108;2022-08-14T02:47:17;10.45;;;6.82;;
31618;SDS011;18230;51.502;7.108;2022-08-14T02:52:18;13.55;;;6.45;;
31618;SDS011;18230;51.502;7.108;2022-08-14T02:57:19;8.63;;;6.00;;
31618;SDS011;18230;51.502;7.108;2022-08-14T03:02:22;8.05;;;6.28;;
31618;SDS011;18230;51.502;7.108;2022-08-14T03:07:22;8.63;;;6.50;;
31618;SDS011;18230;51.502;7.108;2022-08-14T03:12:25;14.05;;;8.55;;
31618;SDS011;18230;51.502;7.108;2022-08-14T03:17:26;10.77;;;7.90;;
31618;SDS011;18230;51.502;7.108;2022-08-14T03:22:26;11.32;;;7.32;;
31618;SDS011;18230;51.502;7.108;2022-08-14T03:27:28;8.02;;;6.90;;
31618;SDS011;18230;51.502;7.108;2022-08-14T03:32:29;9.05;;;6.93;;
31618;SDS011;18230;51.502;7.108;2022-08-14T03:37:33;14.05;;;7.15;;
31618;SDS011;18230;51.502;7.108;2022-08-14T03:42:33;16.25;;;7.82;;
31618;SDS011;18230;51.502;7.108;2022-08-14T03:47:34;20.40;;;7.72;;
31618;SDS011;18230;51.502;7.108;2022-08-14T03:52:39;18.85;;;7.15;;
31618;SDS011;18230;51.502;7.108;2022-08-14T03:57:42;14.23;;;7.85;;
31618;SDS011;18230;51.502;7.108;2022-08-14T04:02:44;10.10;;;7.38;;
31618;SDS011;18230;51.502;7.108;2022-08-14T04:07:44;9.48;;;7.18;;
31618;SDS011;18230;51.502;7.108;2022-08-14T04:12:45;12.50;;;7.68;;
31618;SDS011;18230;51.502;7.108;2022-08-14T04:17:46;7.85;;;7.05;;
31618;SDS011;18230;51.502;7.108;2022-08-14T04:22:47;10.23;;;7.82;;
31618;SDS011;18230;51.502;7.108;2022-08-14T04:27:50;12.13;;;7.45;;
31618;SDS011;18230;51.502;7.108;2022-08-14T04:32:50;8.65;;;7.45;;
31618;SDS011;18230;51.502;7.108;2022-08-14T04:37:51;12.50;;;7.72;;
31618;SDS011;18230;51.502;7.108;2022-08-14T04:43:10;12.02;;;8.48;;
31618;SDS011;18230;51.502;7.108;2022-08-14T04:48:29;10.63;;;7.68;;
31618;SDS011;18230;51.502;7.108;2022-08-14T04:53:30;10.55;;;7.93;;
31618;SDS011;18230;51.502;7.108;2022-08-14T04:58:33;14.07;;;8.18;;
31618;SDS011;18230;51.502;7.108;2022-08-14T05:03:34;10.07;;;8.27;;
31618;SDS011;18230;51.502;7.108;2022-08-14T05:08:37;10.27;;;8.73;;
31618;SDS011;18230;51.502;7.108;2022-08-14T05:13:38;12.82;;;8.98;;
31618;SDS011;18230;51.502;7.108;2022-08-14T05:18:39;11.38;;;9.02;;
31618;SDS011;18230;51.502;7.108;2022-08-14T05:23:40;10.85;;;9.45;;
31618;SDS011;18230;51.502;7.108;2022-08-14T05:28:41;13.93;;;9.85;;
31618;SDS011;18230;51.502;7.108;2022-08-14T05:33:44;15.82;;;9.63;;
31618;SDS011;18230;51.502;7.108;2022-08-14T05:38:46;12.40;;;9.07;;
31618;SDS011;18230;51.502;7.108;2022-08-14T05:43:46;12.40;;;9.75;;
31618;SDS011;18230;51.502;7.108;2022-08-14T05:48:48;12.90;;;9.07;;
31618;SDS011;18230;51.502;7.108;2022-08-14T05:53:50;13.60;;;9.13;;
31618;SDS011;18230;51.502;7.108;2022-08-14T05:58:51;10.80;;;9.43;;
31618;SDS011;18230;51.502;7.108;2022-08-14T06:03:53;11.60;;;9.18;;
31618;SDS011;18230;51.502;7.108;2022-08-14T06:08:53;12.57;;;10.57;;
31618;SDS011;18230;51.502;7.108;2022-08-14T06:13:54;15.00;;;10.50;;
31618;SDS011;18230;51.502;7.108;2022-08-14T06:18:55;13.48;;;11.05;;
31618;SDS011;18230;51.502;7.108;2022-08-14T06:23:56;15.00;;;10.52;;
31618;SDS011;18230;51.502;7.108;2022-08-14T06:28:56;14.23;;;10.57;;
31618;SDS011;18230;51.502;7.108;2022-08-14T06:33:57;14.32;;;10.30;;
31618;SDS011;18230;51.502;7.108;2022-08-14T06:38:58;12.65;;;10.43;;
31618;SDS011;18230;51.502;7.108;2022-08-14T06:43:58;11.60;;;9.75;;
31618;SDS011;18230;51.502;7.108;2022-08-14T06:48:59;13.38;;;10.38;;
31618;SDS011;18230;51.502;7.108;2022-08-14T06:54:00;16.23;;;9.80;;
31618;SDS011;18230;51.502;7.108;2022-08-14T06:59:01;12.52;;;9.68;;
31618;SDS011;18230;51.502;7.108;2022-08-14T07:04:01;10.43;;;8.75;;
31618;SDS011;18230;51.502;7.108;2022-08-14T07:09:21;10.38;;;9.20;;
31618;SDS011;18230;51.502;7.108;2022-08-14T07:14:22;11.10;;;8.75;;
31618;SDS011;18230;51.502;7.108;2022-08-14T07:19:22;10.82;;;8.65;;
31618;SDS011;18230;51.502;7.108;2022-08-14T07:24:23;10.20;;;8.70;;
31618;SDS011;18230;51.502;7.108;2022-08-14T07:29:24;13.95;;;9.48;;
31618;SDS011;18230;51.502;7.108;2022-08-14T07:34:24;10.27;;;9.02;;
31618;SDS011;18230;51.502;7.108;2022-08-14T07:39:25;14.45;;;8.70;;
31618;SDS011;18230;51.502;7.108;2022-08-14T07:44:26;15.07;;;9.75;;
31618;SDS011;18230;51.502;7.108;2022-08-14T07:49:26;11.18;;;8.10;;
31618;SDS011;18230;51.502;7.108;2022-08-14T07:54:27;9.85;;;8.77;;
31618;SDS011;18230;51.502;7.108;2022-08-14T07:59:28;11.55;;;9.38;;
31618;SDS011;18230;51.502;7.108;2022-08-14T08:04:29;9.35;;;7.78;;
31618;SDS011;18230;51.502;7.108;2022-08-14T08:14:55;11.05;;;8.55;;
31618;SDS011;18230;51.502;7.108;2022-08-14T08:19:58;9.98;;;8.98;;
31618;SDS011;18230;51.502;7.108;2022-08-14T08:24:58;9.70;;;8.70;;
31618;SDS011;18230;51.502;7.108;2022-08-14T08:30:06;16.80;;;12.63;;
31618;SDS011;18230;51.502;7.108;2022-08-14T08:35:09;14.27;;;11.15;;
31618;SDS011;18230;51.502;7.108;2022-08-14T08:40:24;17.55;;;10.70;;
31618;SDS011;18230;51.502;7.108;2022-08-14T08:45:27;14.30;;;12.80;;
31618;SDS011;18230;51.502;7.108;2022-08-14T08:50:29;11.57;;;9.65;;
31618;SDS011;18230;51.502;7.108;2022-08-14T08:55:37;12.13;;;8.70;;
31618;SDS011;18230;51.502;7.108;2022-08-14T09:00:39;9.75;;;7.75;;
31618;SDS011;18230;51.502;7.108;2022-08-14T09:05:48;9.05;;;8.05;;
31618;SDS011;18230;51.502;7.108;2022-08-14T09:11:03;8.68;;;7.78;;
31618;SDS011;18230;51.502;7.108;2022-08-14T09:16:08;9.90;;;8.17;;
31618;SDS011;18230;51.502;7.108;2022-08-14T09:21:09;15.10;;;13.48;;
31618;SDS011;18230;51.502;7.108;2022-08-14T09:26:12;10.95;;;8.65;;
31618;SDS011;18230;51.502;7.108;2022-08-14T09:31:12;11.38;;;7.75;;
31618;SDS011;18230;51.502;7.108;2022-08-14T09:46:57;7.93;;;6.43;;
31618;SDS011;18230;51.502;7.108;2022-08-14T09:52:16;7.13;;;6.43;;
31618;SDS011;18230;51.502;7.108;2022-08-14T09:57:27;10.52;;;8.00;;
31618;SDS011;18230;51.502;7.108;2022-08-14T10:02:30;14.10;;;8.25;;
31618;SDS011;18230;51.502;7.108;2022-08-14T10:07:34;8.43;;;7.60;;
31618;SDS011;18230;51.502;7.108;2022-08-14T10:12:52;7.50;;;5.97;;
31618;SDS011;18230;51.502;7.108;2022-08-14T10:23:40;7.00;;;6.32;;
31618;SDS011;18230;51.502;7.108;2022-08-14T10:28:51;10.80;;;6.68;;
31618;SDS011;18230;51.502;7.108;2022-08-14T10:33:57;9.32;;;6.60;;
31618;SDS011;18230;51.502;7.108;2022-08-14T10:39:05;7.00;;;6.38;;
31618;SDS011;18230;51.502;7.108;2022-08-14T10:44:17;8.90;;;6.43;;
31618;SDS011;18230;51.502;7.108;2022-08-14T10:49:22;7.40;;;6.68;;
31618;SDS011;18230;51.502;7.108;2022-08-14T10:54:40;8.65;;;6.18;;
31618;SDS011;18230;51.502;7.108;2022-08-14T10:59:43;6.50;;;5.82;;
31618;SDS011;18230;51.502;7.108;2022-08-14T11:05:36;9.88;;;6.65;;
31618;SDS011;18230;51.502;7.108;2022-08-14T11:10:09;6.78;;;6.20;;
31618;SDS011;18230;51.502;7.108;2022-08-14T11:15:13;6.65;;;6.03;;
31618;SDS011;18230;51.502;7.108;2022-08-14T11:20:19;8.00;;;6.50;;
31618;SDS011;18230;51.502;7.108;2022-08-14T11:25:22;7.13;;;6.10;;
31618;SDS011;18230;51.502;7.108;2022-08-14T11:30:27;7.40;;;6.05;;
31618;SDS011;18230;51.502;7.108;2022-08-14T11:35:29;8.88;;;5.97;;
31618;SDS011;18230;51.502;7.108;2022-08-14T11:40:33;7.38;;;6.68;;
31618;SDS011;18230;51.502;7.108;2022-08-14T11:45:36;7.72;;;6.40;;
31618;SDS011;18230;51.502;7.108;2022-08-14T11:50:42;6.13;;;5.63;;
31618;SDS011;18230;51.502;7.108;2022-08-14T11:55:47;6.82;;;6.15;;
31618;SDS011;18230;51.502;7.108;2022-08-14T12:00:57;8.05;;;6.15;;
31618;SDS011;18230;51.502;7.108;2022-08-14T12:06:06;6.95;;;6.25;;
31618;SDS011;18230;51.502;7.108;2022-08-14T12:11:12;7.47;;;6.85;;
31618;SDS011;18230;51.502;7.108;2022-08-14T12:16:14;7.07;;;6.05;;
31618;SDS011;18230;51.502;7.108;2022-08-14T12:21:19;9.30;;;5.97;;
31618;SDS011;18230;51.502;7.108;2022-08-14T12:26:23;8.50;;;5.75;;
31618;SDS011;18230;51.502;7.108;2022-08-14T12:31:24;6.63;;;6.00;;
31618;SDS011;18230;51.502;7.108;2022-08-14T12:36:26;9.10;;;7.35;;
31618;SDS011;18230;51.502;7.108;2022-08-14T12:41:30;8.10;;;6.57;;
31618;SDS011;18230;51.502;7.108;2022-08-14T12:46:35;9.02;;;6.50;;
31618;SDS011;18230;51.502;7.108;2022-08-14T12:51:39;8.07;;;6.47;;
31618;SDS011;18230;51.502;7.108;2022-08-14T12:56:40;7.18;;;6.47;;
31618;SDS011;18230;51.502;7.108;2022-08-14T13:01:41;8.25;;;6.68;;
31618;SDS011;18230;51.502;7.108;2022-08-14T13:06:46;7.25;;;6.55;;
31618;SDS011;18230;51.502;7.108;2022-08-14T13:11:49;9.20;;;6.75;;
31618;SDS011;18230;51.502;7.108;2022-08-14T13:16:52;7.20;;;6.53;;
31618;SDS011;18230;51.502;7.108;2022-08-14T13:21:55;7.13;;;6.43;;
31618;SDS011;18230;51.502;7.108;2022-08-14T13:26:56;6.70;;;6.10;;
31618;SDS011;18230;51.502;7.108;2022-08-14T13:31:59;6.90;;;6.30;;
31618;SDS011;18230;51.502;7.108;2022-08-14T13:37:04;6.43;;;5.82;;
31618;SDS011;18230;51.502;7.108;2022-08-14T13:42:07;8.15;;;6.53;;
31618;SDS011;18230;51.502;7.108;2022-08-14T13:47:10;6.13;;;5.63;;
31618;SDS011;18230;51.502;7.108;2022-08-14T13:52:18;7.50;;;6.05;;
31618;SDS011;18230;51.502;7.108;2022-08-14T13:57:20;7.35;;;6.05;;
31618;SDS011;18230;51.502;7.108;2022-08-14T14:02:22;7.05;;;6.28;;
31618;SDS011;18230;51.502;7.108;2022-08-14T14:07:27;6.93;;;5.93;;
31618;SDS011;18230;51.502;7.108;2022-08-14T14:12:33;6.03;;;5.53;;
31618;SDS011;18230;51.502;7.108;2022-08-14T14:17:36;10.30;;;6.00;;
31618;SDS011;18230;51.502;7.108;2022-08-14T14:22:39;6.13;;;5.35;;
31618;SDS011;18230;51.502;7.108;2022-08-14T14:27:42;7.32;;;6.18;;
31618;SDS011;18230;51.502;7.108;2022-08-14T14:32:46;7.68;;;5.63;;
31618;SDS011;18230;51.502;7.108;2022-08-14T14:37:47;5.97;;;5.43;;
31618;SDS011;18230;51.502;7.108;2022-08-14T14:42:50;8.38;;;6.85;;
31618;SDS011;18230;51.502;7.108;2022-08-14T14:47:52;6.15;;;5.55;;
31618;SDS011;18230;51.502;7.108;2022-08-14T14:52:54;8.25;;;7.45;;
31618;SDS011;18230;51.502;7.108;2022-08-14T14:57:55;6.32;;;4.65;;
31618;SDS011;18230;51.502;7.108;2022-08-14T15:02:59;8.20;;;5.47;;
31618;SDS011;18230;51.502;7.108;2022-08-14T15:08:04;5.35;;;4.85;;
31618;SDS011;18230;51.502;7.108;2022-08-14T15:13:05;5.45;;;5.03;;
31618;SDS011;18230;51.502;7.108;2022-08-14T15:18:07;5.65;;;5.15;;
31618;SDS011;18230;51.502;7.108;2022-08-14T15:23:10;5.95;;;5.28;;
31618;SDS011;18230;51.502;7.108;2022-08-14T15:28:14;6.18;;;5.57;;
31618;SDS011;18230;51.502;7.108;2022-08-14T15:33:15;5.72;;;5.20;;
31618;SDS011;18230;51.502;7.108;2022-08-14T15:38:36;6.07;;;5.57;;
31618;SDS011;18230;51.502;7.108;2022-08-14T15:43:37;6.88;;;6.20;;
31618;SDS011;18230;51.502;7.108;2022-08-14T15:48:38;6.47;;;5.57;;
31618;SDS011;18230;51.502;7.108;2022-08-14T15:53:39;7.10;;;5.15;;
31618;SDS011;18230;51.502;7.108;2022-08-14T15:58:40;6.07;;;5.38;;
31618;SDS011;18230;51.502;7.108;2022-08-14T16:03:41;6.47;;;5.85;;
31618;SDS011;18230;51.502;7.108;2022-08-14T16:08:42;6.82;;;5.80;;
31618;SDS011;18230;51.502;7.108;2022-08-14T16:13:47;6.07;;;5.57;;
31618;SDS011;18230;51.502;7.108;2022-08-14T16:18:49;6.43;;;5.78;;
31618;SDS011;18230;51.502;7.108;2022-08-14T16:23:51;5.93;;;5.32;;
31618;SDS011;18230;51.502;7.108;2022-08-14T16:28:56;5.57;;;5.13;;
31618;SDS011;18230;51.502;7.108;2022-08-14T16:34:02;6.82;;;5.47;;
31618;SDS011;18230;51.502;7.108;2022-08-14T16:39:04;5.30;;;4.90;;
31618;SDS011;18230;51.502;7.108;2022-08-14T16:44:06;6.28;;;5.68;;
31618;SDS011;18230;51.502;7.108;2022-08-14T16:49:12;7.35;;;5.10;;
31618;SDS011;18230;51.502;7.108;2022-08-14T16:54:15;7.72;;;7.07;;
31618;SDS011;18230;51.502;7.108;2022-08-14T16:59:17;9.05;;;8.23;;
31618;SDS011;18230;51.502;7.108;2022-08-14T17:04:19;8.60;;;6.70;;
31618;SDS011;18230;51.502;7.108;2022-08-14T17:15:33;7.35;;;6.28;;
31618;SDS011;18230;51.502;7.108;2022-08-14T17:20:07;7.22;;;6.57;;
31618;SDS011;18230;51.502;7.108;2022-08-14T17:25:25;10.30;;;6.90;;
31618;SDS011;18230;51.502;7.108;2022-08-14T17:30:54;11.27;;;8.68;;
31618;SDS011;18230;51.502;7.108;2022-08-14T17:46:39;14.60;;;12.98;;
31618;SDS011;18230;51.502;7.108;2022-08-14T17:57:05;7.25;;;5.90;;
31618;SDS011;18230;51.502;7.108;2022-08-14T18:02:17;6.47;;;5.97;;
31618;SDS011;18230;51.502;7.108;2022-08-14T18:07:20;6.32;;;5.72;;
31618;SDS011;18230;51.502;7.108;2022-08-14T18:12:22;10.52;;;7.70;;
31618;SDS011;18230;51.502;7.108;2022-08-14T18:17:23;9.95;;;6.65;;
31618;SDS011;18230;51.502;7.108;2022-08-14T18:22:25;35.95;;;11.68;;
31618;SDS011;18230;51.502;7.108;2022-08-14T18:27:35;22.48;;;8.82;;
31618;SDS011;18230;51.502;7.108;2022-08-14T18:32:41;7.88;;;5.40;;
31618;SDS011;18230;51.502;7.108;2022-08-14T18:37:44;6.15;;;5.55;;
31618;SDS011;18230;51.502;7.108;2022-08-14T18:53:16;7.05;;;6.35;;
31618;SDS011;18230;51.502;7.108;2022-08-14T18:58:18;11.90;;;6.68;;
31618;SDS011;18230;51.502;7.108;2022-08-14T19:09:06;12.68;;;7.13;;
31618;SDS011;18230;51.502;7.108;2022-08-14T19:14:01;13.77;;;7.68;;
31618;SDS011;18230;51.502;7.108;2022-08-14T19:19:04;17.20;;;10.02;;
31618;SDS011;18230;51.502;7.108;2022-08-14T19:29:26;10.27;;;6.82;;
31618;SDS011;18230;51.502;7.108;2022-08-14T19:39:43;13.07;;;6.82;;
31618;SDS011;18230;51.502;7.108;2022-08-14T19:44:47;12.02;;;7.40;;
31618;SDS011;18230;51.502;7.108;2022-08-14T19:49:48;18.73;;;7.40;;
31618;SDS011;18230;51.502;7.108;2022-08-14T19:54:50;12.65;;;6.90;;
31618;SDS011;18230;51.502;7.108;2022-08-14T20:00:04;19.15;;;6.47;;
31618;SDS011;18230;51.502;7.108;2022-08-14T20:05:10;9.38;;;6.70;;
31618;SDS011;18230;51.502;7.108;2022-08-14T20:15:33;20.67;;;7.50;;
31618;SDS011;18230;51.502;7.108;2022-08-14T20:20:36;9.23;;;6.95;;
31618;SDS011;18230;51.502;7.108;2022-08-14T20:25:38;12.40;;;8.18;;
31618;SDS011;18230;51.502;7.108;2022-08-14T20:30:40;16.40;;;8.20;;
31618;SDS011;18230;51.502;7.108;2022-08-14T20:35:44;19.00;;;8.40;;
31618;SDS011;18230;51.502;7.108;2022-08-14T20:40:54;10.55;;;7.47;;
31618;SDS011;18230;51.502;7.108;2022-08-14T20:45:58;13.43;;;8.85;;
31618;SDS011;18230;51.502;7.108;2022-08-14T20:51:16;14.98;;;8.88;;
31618;SDS011;18230;51.502;7.108;2022-08-14T20:56:24;7.68;;;6.93;;
31618;SDS011;18230;51.502;7.108;2022-08-14T21:01:29;14.55;;;7.60;;
31618;SDS011;18230;51.502;7.108;2022-08-14T21:06:35;13.35;;;7.97;;
31618;SDS011;18230;51.502;7.108;2022-08-14T21:11:38;10.03;;;7.67;;
31618;SDS011;18230;51.502;7.108;2022-08-14T21:16:41;10.32;;;7.95;;
31618;SDS011;18230;51.502;7.108;2022-08-14T21:21:43;10.57;;;7.22;;
31618;SDS011;18230;51.502;7.108;2022-08-14T21:26:44;8.98;;;8.07;;
31618;SDS011;18230;51.502;7.108;2022-08-14T21:31:46;10.63;;;7.53;;
31618;SDS011;18230;51.502;7.108;2022-08-14T21:36:48;12.80;;;7.38;;
31618;SDS011;18230;51.502;7.108;2022-08-14T21:41:53;8.68;;;6.55;;
31618;SDS011;18230;51.502;7.108;2022-08-14T21:46:56;12.05;;;7.30;;
31618;SDS011;18230;51.502;7.108;2022-08-14T21:58:26;11.73;;;7.90;;
31618;SDS011;18230;51.502;7.108;2022-08-14T22:03:37;11.97;;;7.73;;
31618;SDS011;18230;51.502;7.108;2022-08-14T22:08:44;13.23;;;7.93;;
31618;SDS011;18230;51.502;7.108;2022-08-14T22:13:45;9.13;;;6.90;;
31618;SDS011;18230;51.502;7.108;2022-08-14T22:18:46;10.13;;;7.25;;
31618;SDS011;18230;51.502;7.108;2022-08-14T22:23:47;12.63;;;7.35;;
31618;SDS011;18230;51.502;7.108;2022-08-14T22:28:48;11.45;;;7.90;;
31618;SDS011;18230;51.502;7.108;2022-08-14T22:33:49;10.27;;;7.50;;
31618;SDS011;18230;51.502;7.108;2022-08-14T22:38:53;11.85;;;8.52;;
31618;SDS011;18230;51.502;7.108;2022-08-14T22:44:01;11.35;;;8.07;;
31618;SDS011;18230;51.502;7.108;2022-08-14T22:49:09;10.00;;;7.88;;
31618;SDS011;18230;51.502;7.108;2022-08-14T22:54:10;11.98;;;7.75;;
31618;SDS011;18230;51.502;7.108;2022-08-14T22:59:11;9.02;;;7.82;;
31618;SDS011;18230;51.502;7.108;2022-08-14T23:04:12;8.70;;;7.80;;
31618;SDS011;18230;51.502;7.108;2022-08-14T23:09:16;11.00;;;7.82;;
31618;SDS011;18230;51.502;7.108;2022-08-14T23:14:20;10.43;;;8.00;;
31618;SDS011;18230;51.502;7.108;2022-08-14T23:19:22;10.32;;;7.40;;
31618;SDS011;18230;51.502;7.108;2022-08-14T23:24:24;10.60;;;7.68;;
31618;SDS011;18230;51.502;7.108;2022-08-14T23:29:24;11.32;;;7.47;;
31618;SDS011;18230;51.502;7.108;2022-08-14T23:34:26;12.68;;;7.90;;
31618;SDS011;18230;51.502;7.108;2022-08-14T23:39:28;9.60;;;7.68;;
31618;SDS011;18230;51.502;7.108;2022-08-14T23:44:32;12.10;;;7.68;;
31618;SDS011;18230;51.502;7.108;2022-08-14T23:49:35;9.45;;;7.55;;
31618;SDS011;18230;51.502;7.108;2022-08-14T23:54:36;9.80;;;8.13;;
31618;SDS011;18230;51.502;7.108;2022-08-14T23:59:37;16.92;;;7.97;;
